sensor_id;sensor_type;location;lat;lon;timestamp;pressure;altitude;pressure_sealevel;temperature;humidity
54872;BME280;43914;57.680;11.982;2023-04-02T00:09:02;101346.56;;;-0.59;77.80
54872;BME280;43914;57.680;11.982;2023-04-02T00:11:36;101345.39;;;-0.63;78.00
54872;BME280;43914;57.680;11.982;2023-04-02T00:14:04;101353.34;;;-0.61;78.10
54872;BME280;43914;57.680;11.982;2023-04-02T00:16:30;101359.17;;;-0.61;78.22
54872;BME280;43914;57.680;11.982;2023-04-02T00:19:03;101365.44;;;-0.63;78.08
54872;BME280;43914;57.680;11.982;2023-04-02T00:21:33;101365.73;;;-0.65;78.36
54872;BME280;43914;57.680;11.982;2023-04-02T00:24:01;101369.31;;;-0.66;78.52
54872;BME280;43914;57.680;11.982;2023-04-02T00:26:34;101373.61;;;-0.67;78.55
54872;BME280;43914;57.680;11.982;2023-04-02T00:29:02;101379.59;;;-0.67;78.74
54872;BME280;43914;57.680;11.982;2023-04-02T00:31:29;101378.55;;;-0.67;78.63
54872;BME280;43914;57.680;11.982;2023-04-02T00:33:56;101384.39;;;-0.68;78.66
54872;BME280;43914;57.680;11.982;2023-04-02T00:36:24;101387.70;;;-0.70;78.63
54872;BME280;43914;57.680;11.982;2023-04-02T00:38:52;101391.15;;;-0.71;78.67
54872;BME280;43914;57.680;11.982;2023-04-02T00:41:23;101392.90;;;-0.71;78.76
54872;BME280;43914;57.680;11.982;2023-04-02T00:43:51;101393.48;;;-0.72;78.93
54872;BME280;43914;57.680;11.982;2023-04-02T00:46:21;101396.00;;;-0.73;78.94
54872;BME280;43914;57.680;11.982;2023-04-02T00:51:50;101403.27;;;-0.74;79.14
54872;BME280;43914;57.680;11.982;2023-04-02T00:54:20;101402.88;;;-0.76;79.16
54872;BME280;43914;57.680;11.982;2023-04-02T00:56:51;101407.27;;;-0.76;79.14
54872;BME280;43914;57.680;11.982;2023-04-02T00:59:25;101411.05;;;-0.75;79.21
54872;BME280;43914;57.680;11.982;2023-04-02T01:01:55;101412.93;;;-0.77;79.32
54872;BME280;43914;57.680;11.982;2023-04-02T01:04:32;101419.03;;;-0.76;79.37
54872;BME280;43914;57.680;11.982;2023-04-02T01:07:04;101424.25;;;-0.78;79.38
54872;BME280;43914;57.680;11.982;2023-04-02T01:09:52;101425.75;;;-0.79;79.50
54872;BME280;43914;57.680;11.982;2023-04-02T01:12:30;101428.03;;;-0.79;79.47
54872;BME280;43914;57.680;11.982;2023-04-02T01:23:13;101437.49;;;-0.82;79.55
54872;BME280;43914;57.680;11.982;2023-04-02T01:25:53;101434.88;;;-0.82;79.55
54872;BME280;43914;57.680;11.982;2023-04-02T01:28:27;101438.64;;;-0.83;79.64
54872;BME280;43914;57.680;11.982;2023-04-02T01:31:00;101445.80;;;-0.85;79.70
54872;BME280;43914;57.680;11.982;2023-04-02T01:33:29;101447.20;;;-0.88;79.83
54872;BME280;43914;57.680;11.982;2023-04-02T01:36:18;101452.86;;;-0.89;79.99
54872;BME280;43914;57.680;11.982;2023-04-02T01:42:09;101457.92;;;-0.91;80.08
54872;BME280;43914;57.680;11.982;2023-04-02T01:45:10;101465.98;;;-0.93;80.34
54872;BME280;43914;57.680;11.982;2023-04-02T01:47:36;101470.78;;;-0.97;80.38
54872;BME280;43914;57.680;11.982;2023-04-02T01:52:49;101475.23;;;-1.01;80.83
54872;BME280;43914;57.680;11.982;2023-04-02T01:55:38;101481.53;;;-1.00;80.63
54872;BME280;43914;57.680;11.982;2023-04-02T01:58:04;101480.56;;;-1.02;80.89
54872;BME280;43914;57.680;11.982;2023-04-02T02:00:30;101480.97;;;-1.03;80.86
54872;BME280;43914;57.680;11.982;2023-04-02T02:02:59;101483.89;;;-1.01;81.08
54872;BME280;43914;57.680;11.982;2023-04-02T02:05:25;101487.04;;;-1.01;80.94
54872;BME280;43914;57.680;11.982;2023-04-02T02:07:51;101485.82;;;-1.01;81.08
54872;BME280;43914;57.680;11.982;2023-04-02T02:10:34;101485.77;;;-1.00;81.18
54872;BME280;43914;57.680;11.982;2023-04-02T02:13:01;101485.70;;;-0.99;81.25
54872;BME280;43914;57.680;11.982;2023-04-02T02:15:30;101489.63;;;-1.00;81.36
54872;BME280;43914;57.680;11.982;2023-04-02T02:18:01;101493.94;;;-1.02;81.17
54872;BME280;43914;57.680;11.982;2023-04-02T02:20:27;101495.49;;;-1.05;81.36
54872;BME280;43914;57.680;11.982;2023-04-02T02:22:54;101500.31;;;-1.06;81.49
54872;BME280;43914;57.680;11.982;2023-04-02T02:25:24;101506.04;;;-1.07;81.55
54872;BME280;43914;57.680;11.982;2023-04-02T02:28:13;101509.21;;;-1.11;81.67
54872;BME280;43914;57.680;11.982;2023-04-02T02:30:49;101517.90;;;-1.12;81.88
54872;BME280;43914;57.680;11.982;2023-04-02T02:36:04;101523.13;;;-1.14;82.25
54872;BME280;43914;57.680;11.982;2023-04-02T02:41:25;101524.81;;;-1.22;82.84
54872;BME280;43914;57.680;11.982;2023-04-02T02:46:51;101531.00;;;-1.32;83.71
54872;BME280;43914;57.680;11.982;2023-04-02T02:49:26;101532.17;;;-1.37;84.19
54872;BME280;43914;57.680;11.982;2023-04-02T02:52:20;101536.52;;;-1.43;84.55
54872;BME280;43914;57.680;11.982;2023-04-02T02:54:53;101541.98;;;-1.47;85.09
54872;BME280;43914;57.680;11.982;2023-04-02T02:57:35;101553.80;;;-1.50;85.53
54872;BME280;43914;57.680;11.982;2023-04-02T03:00:04;101556.80;;;-1.54;86.02
54872;BME280;43914;57.680;11.982;2023-04-02T03:02:35;101561.83;;;-1.55;86.34
54872;BME280;43914;57.680;11.982;2023-04-02T03:05:01;101565.11;;;-1.58;86.98
54872;BME280;43914;57.680;11.982;2023-04-02T03:07:29;101566.13;;;-1.61;87.23
54872;BME280;43914;57.680;11.982;2023-04-02T03:10:12;101569.94;;;-1.63;87.76
54872;BME280;43914;57.680;11.982;2023-04-02T03:20:55;101577.73;;;-1.67;88.59
54872;BME280;43914;57.680;11.982;2023-04-02T03:23:29;101581.38;;;-1.69;88.49
54872;BME280;43914;57.680;11.982;2023-04-02T03:26:20;101586.86;;;-1.70;88.61
54872;BME280;43914;57.680;11.982;2023-04-02T03:29:15;101588.10;;;-1.70;88.72
54872;BME280;43914;57.680;11.982;2023-04-02T03:31:53;101593.20;;;-1.70;88.85
54872;BME280;43914;57.680;11.982;2023-04-02T03:34:27;101601.63;;;-1.70;88.92
54872;BME280;43914;57.680;11.982;2023-04-02T03:37:01;101605.52;;;-1.70;88.94
54872;BME280;43914;57.680;11.982;2023-04-02T03:39:47;101607.63;;;-1.70;89.04
54872;BME280;43914;57.680;11.982;2023-04-02T03:42:22;101615.96;;;-1.72;88.93
54872;BME280;43914;57.680;11.982;2023-04-02T03:47:59;101622.64;;;-1.72;89.04
54872;BME280;43914;57.680;11.982;2023-04-02T03:50:34;101623.99;;;-1.71;88.77
54872;BME280;43914;57.680;11.982;2023-04-02T03:53:03;101626.23;;;-1.70;88.77
54872;BME280;43914;57.680;11.982;2023-04-02T03:55:31;101630.91;;;-1.69;88.78
54872;BME280;43914;57.680;11.982;2023-04-02T03:58:14;101634.17;;;-1.67;88.61
54872;BME280;43914;57.680;11.982;2023-04-02T04:01:02;101634.96;;;-1.66;88.52
54872;BME280;43914;57.680;11.982;2023-04-02T04:03:40;101641.23;;;-1.65;88.23
54872;BME280;43914;57.680;11.982;2023-04-02T04:06:11;101646.35;;;-1.65;88.12
54872;BME280;43914;57.680;11.982;2023-04-02T04:08:48;101646.52;;;-1.65;88.21
54872;BME280;43914;57.680;11.982;2023-04-02T04:11:18;101647.56;;;-1.65;88.42
54872;BME280;43914;57.680;11.982;2023-04-02T04:13:58;101654.10;;;-1.66;88.03
54872;BME280;43914;57.680;11.982;2023-04-02T04:16:31;101658.09;;;-1.65;88.22
54872;BME280;43914;57.680;11.982;2023-04-02T04:19:09;101661.50;;;-1.66;87.58
54872;BME280;43914;57.680;11.982;2023-04-02T04:21:42;101668.40;;;-1.67;87.87
54872;BME280;43914;57.680;11.982;2023-04-02T04:24:22;101674.14;;;-1.66;88.17
54872;BME280;43914;57.680;11.982;2023-04-02T04:26:52;101679.40;;;-1.66;87.84
54872;BME280;43914;57.680;11.982;2023-04-02T04:29:40;101680.27;;;-1.68;87.78
54872;BME280;43914;57.680;11.982;2023-04-02T04:32:31;101685.52;;;-1.68;88.05
54872;BME280;43914;57.680;11.982;2023-04-02T04:35:59;101689.06;;;-1.69;88.09
54872;BME280;43914;57.680;11.982;2023-04-02T04:38:25;101690.45;;;-1.69;88.02
54872;BME280;43914;57.680;11.982;2023-04-02T04:40:59;101697.56;;;-1.67;87.35
54872;BME280;43914;57.680;11.982;2023-04-02T04:43:31;101701.61;;;-1.67;87.11
54872;BME280;43914;57.680;11.982;2023-04-02T04:46:27;101702.88;;;-1.67;87.10
54872;BME280;43914;57.680;11.982;2023-04-02T04:48:51;101708.95;;;-1.66;86.88
54872;BME280;43914;57.680;11.982;2023-04-02T04:53:48;101715.86;;;-1.64;86.33
54872;BME280;43914;57.680;11.982;2023-04-02T04:56:19;101716.35;;;-1.63;86.02
54872;BME280;43914;57.680;11.982;2023-04-02T04:58:51;101717.28;;;-1.61;85.96
54872;BME280;43914;57.680;11.982;2023-04-02T05:01:29;101721.10;;;-1.60;85.83
54872;BME280;43914;57.680;11.982;2023-04-02T05:07:00;101731.78;;;-1.53;85.13
54872;BME280;43914;57.680;11.982;2023-04-02T05:20:25;101749.63;;;-1.40;83.55
54872;BME280;43914;57.680;11.982;2023-04-02T05:22:58;101756.88;;;-1.38;83.28
54872;BME280;43914;57.680;11.982;2023-04-02T05:25:31;101762.84;;;-1.38;83.24
54872;BME280;43914;57.680;11.982;2023-04-02T05:33:02;101772.73;;;-1.28;82.65
54872;BME280;43914;57.680;11.982;2023-04-02T05:35:36;101774.83;;;-1.25;82.52
54872;BME280;43914;57.680;11.982;2023-04-02T05:38:06;101777.05;;;-1.27;82.18
54872;BME280;43914;57.680;11.982;2023-04-02T05:40:41;101785.62;;;-1.23;82.07
54872;BME280;43914;57.680;11.982;2023-04-02T05:43:09;101795.86;;;-1.20;82.16
54872;BME280;43914;57.680;11.982;2023-04-02T05:45:43;101797.16;;;-1.18;81.83
54872;BME280;43914;57.680;11.982;2023-04-02T05:48:19;101807.36;;;-1.15;81.79
54872;BME280;43914;57.680;11.982;2023-04-02T05:50:52;101810.17;;;-1.11;81.79
54872;BME280;43914;57.680;11.982;2023-04-02T05:56:15;101816.89;;;-1.06;81.37
54872;BME280;43914;57.680;11.982;2023-04-02T05:59:10;101819.73;;;-1.03;81.52
54872;BME280;43914;57.680;11.982;2023-04-02T06:02:34;101827.23;;;-0.98;81.25
54872;BME280;43914;57.680;11.982;2023-04-02T06:05:16;101830.84;;;-0.93;81.20
54872;BME280;43914;57.680;11.982;2023-04-02T06:07:50;101834.27;;;-0.88;81.02
54872;BME280;43914;57.680;11.982;2023-04-02T06:10:23;101829.84;;;-0.84;81.01
54872;BME280;43914;57.680;11.982;2023-04-02T06:12:54;101832.14;;;-0.78;80.81
54872;BME280;43914;57.680;11.982;2023-04-02T06:15:23;101837.94;;;-0.71;80.39
54872;BME280;43914;57.680;11.982;2023-04-02T06:18:04;101839.46;;;-0.67;79.86
54872;BME280;43914;57.680;11.982;2023-04-02T06:20:31;101842.27;;;-0.60;79.44
54872;BME280;43914;57.680;11.982;2023-04-02T06:23:10;101849.67;;;-0.54;79.09
54872;BME280;43914;57.680;11.982;2023-04-02T06:25:47;101852.14;;;-0.47;78.72
54872;BME280;43914;57.680;11.982;2023-04-02T06:28:17;101851.60;;;-0.44;77.98
54872;BME280;43914;57.680;11.982;2023-04-02T06:30:45;101851.86;;;-0.39;77.33
54872;BME280;43914;57.680;11.982;2023-04-02T06:33:12;101860.67;;;-0.33;76.85
54872;BME280;43914;57.680;11.982;2023-04-02T06:35:42;101860.82;;;-0.29;76.57
54872;BME280;43914;57.680;11.982;2023-04-02T06:38:17;101860.45;;;-0.22;76.18
54872;BME280;43914;57.680;11.982;2023-04-02T06:40:52;101852.88;;;-0.19;75.68
54872;BME280;43914;57.680;11.982;2023-04-02T06:43:36;101867.30;;;-0.09;74.85
54872;BME280;43914;57.680;11.982;2023-04-02T06:46:21;101868.95;;;-0.01;74.90
54872;BME280;43914;57.680;11.982;2023-04-02T06:48:51;101875.17;;;0.08;73.80
54872;BME280;43914;57.680;11.982;2023-04-02T06:51:21;101883.08;;;0.15;73.50
54872;BME280;43914;57.680;11.982;2023-04-02T06:53:49;101878.91;;;0.16;72.74
54872;BME280;43914;57.680;11.982;2023-04-02T06:56:40;101886.75;;;0.27;71.04
54872;BME280;43914;57.680;11.982;2023-04-02T06:59:07;101895.50;;;0.35;69.94
54872;BME280;43914;57.680;11.982;2023-04-02T07:01:37;101897.55;;;0.42;69.53
54872;BME280;43914;57.680;11.982;2023-04-02T07:04:04;101896.81;;;0.49;68.55
54872;BME280;43914;57.680;11.982;2023-04-02T07:06:30;101903.25;;;0.53;66.69
54872;BME280;43914;57.680;11.982;2023-04-02T07:08:56;101908.16;;;0.60;65.71
54872;BME280;43914;57.680;11.982;2023-04-02T07:11:21;101900.27;;;0.65;65.09
54872;BME280;43914;57.680;11.982;2023-04-02T07:13:48;101905.36;;;0.71;64.13
54872;BME280;43914;57.680;11.982;2023-04-02T07:16:19;101899.48;;;0.73;63.54
54872;BME280;43914;57.680;11.982;2023-04-02T07:18:46;101908.60;;;0.80;63.02
54872;BME280;43914;57.680;11.982;2023-04-02T07:21:11;101910.09;;;0.87;62.75
54872;BME280;43914;57.680;11.982;2023-04-02T07:23:37;101909.20;;;0.93;61.55
54872;BME280;43914;57.680;11.982;2023-04-02T07:26:04;101910.57;;;0.97;61.67
54872;BME280;43914;57.680;11.982;2023-04-02T07:28:30;101921.23;;;1.02;60.70
54872;BME280;43914;57.680;11.982;2023-04-02T07:30:56;101920.69;;;1.08;60.71
54872;BME280;43914;57.680;11.982;2023-04-02T07:33:24;101921.25;;;1.13;60.80
54872;BME280;43914;57.680;11.982;2023-04-02T07:35:52;101925.80;;;1.20;60.41
54872;BME280;43914;57.680;11.982;2023-04-02T07:38:18;101932.31;;;1.26;59.97
54872;BME280;43914;57.680;11.982;2023-04-02T07:40:43;101930.92;;;1.31;59.52
54872;BME280;43914;57.680;11.982;2023-04-02T07:43:09;101938.17;;;1.37;59.04
54872;BME280;43914;57.680;11.982;2023-04-02T07:45:34;101940.00;;;1.42;58.18
54872;BME280;43914;57.680;11.982;2023-04-02T07:48:10;101945.95;;;1.46;56.95
54872;BME280;43914;57.680;11.982;2023-04-02T07:50:36;101942.80;;;1.51;57.73
54872;BME280;43914;57.680;11.982;2023-04-02T07:53:02;101947.45;;;1.59;56.87
54872;BME280;43914;57.680;11.982;2023-04-02T07:55:28;101947.40;;;1.65;57.19
54872;BME280;43914;57.680;11.982;2023-04-02T07:57:56;101937.94;;;1.64;56.90
54872;BME280;43914;57.680;11.982;2023-04-02T08:00:22;101953.84;;;1.81;55.79
54872;BME280;43914;57.680;11.982;2023-04-02T08:02:49;101957.48;;;1.88;55.64
54872;BME280;43914;57.680;11.982;2023-04-02T08:05:15;101964.09;;;1.95;54.45
54872;BME280;43914;57.680;11.982;2023-04-02T08:07:42;101960.58;;;2.00;54.36
54872;BME280;43914;57.680;11.982;2023-04-02T08:10:10;101966.54;;;2.07;53.88
54872;BME280;43914;57.680;11.982;2023-04-02T08:12:36;101971.20;;;2.14;55.43
54872;BME280;43914;57.680;11.982;2023-04-02T08:15:04;101975.11;;;2.25;53.97
54872;BME280;43914;57.680;11.982;2023-04-02T08:17:31;101978.55;;;2.29;51.87
54872;BME280;43914;57.680;11.982;2023-04-02T08:19:57;101977.81;;;2.33;50.88
54872;BME280;43914;57.680;11.982;2023-04-02T08:22:27;101983.06;;;2.36;50.65
54872;BME280;43914;57.680;11.982;2023-04-02T08:24:53;101986.83;;;2.41;50.01
54872;BME280;43914;57.680;11.982;2023-04-02T08:27:19;101986.39;;;2.48;49.78
54872;BME280;43914;57.680;11.982;2023-04-02T08:29:45;101984.84;;;2.53;49.59
54872;BME280;43914;57.680;11.982;2023-04-02T08:32:12;101992.30;;;2.58;48.98
54872;BME280;43914;57.680;11.982;2023-04-02T08:34:41;101996.63;;;2.65;48.58
54872;BME280;43914;57.680;11.982;2023-04-02T08:37:09;101997.50;;;2.70;47.88
54872;BME280;43914;57.680;11.982;2023-04-02T08:39:35;101999.81;;;2.75;46.04
54872;BME280;43914;57.680;11.982;2023-04-02T08:44:58;102007.34;;;2.93;45.96
54872;BME280;43914;57.680;11.982;2023-04-02T08:47:32;102006.58;;;2.99;45.45
54872;BME280;43914;57.680;11.982;2023-04-02T08:52:53;102018.61;;;3.12;44.24
54872;BME280;43914;57.680;11.982;2023-04-02T08:55:38;102021.82;;;3.17;43.08
54872;BME280;43914;57.680;11.982;2023-04-02T08:58:30;102021.73;;;3.24;43.12
54872;BME280;43914;57.680;11.982;2023-04-02T09:00:55;102027.89;;;3.30;41.53
54872;BME280;43914;57.680;11.982;2023-04-02T09:03:41;102029.17;;;3.34;41.51
54872;BME280;43914;57.680;11.982;2023-04-02T09:06:12;102030.80;;;3.39;40.77
54872;BME280;43914;57.680;11.982;2023-04-02T09:08:42;102034.42;;;3.43;40.29
54872;BME280;43914;57.680;11.982;2023-04-02T09:11:23;102036.66;;;3.47;39.47
54872;BME280;43914;57.680;11.982;2023-04-02T09:13:56;102038.17;;;3.51;39.25
54872;BME280;43914;57.680;11.982;2023-04-02T09:18:59;102040.48;;;3.58;38.98
54872;BME280;43914;57.680;11.982;2023-04-02T09:21:29;102045.42;;;3.64;38.58
54872;BME280;43914;57.680;11.982;2023-04-02T09:23:56;102048.53;;;3.70;38.73
54872;BME280;43914;57.680;11.982;2023-04-02T09:26:25;102045.56;;;3.75;39.43
54872;BME280;43914;57.680;11.982;2023-04-02T09:28:58;102052.45;;;3.80;40.20
54872;BME280;43914;57.680;11.982;2023-04-02T09:31:33;102054.56;;;3.88;40.39
54872;BME280;43914;57.680;11.982;2023-04-02T09:36:52;102059.70;;;3.94;38.85
54872;BME280;43914;57.680;11.982;2023-04-02T09:39:23;102065.09;;;3.98;38.47
54872;BME280;43914;57.680;11.982;2023-04-02T09:42:27;102063.55;;;4.01;38.60
54872;BME280;43914;57.680;11.982;2023-04-02T09:45:11;102066.42;;;4.06;38.85
54872;BME280;43914;57.680;11.982;2023-04-02T09:47:38;102067.02;;;4.11;38.67
54872;BME280;43914;57.680;11.982;2023-04-02T09:52:46;102064.50;;;4.13;38.12
54872;BME280;43914;57.680;11.982;2023-04-02T09:57:41;102078.25;;;4.27;39.06
54872;BME280;43914;57.680;11.982;2023-04-02T10:02:38;102083.35;;;4.41;39.05
54872;BME280;43914;57.680;11.982;2023-04-02T10:05:05;102086.40;;;4.45;38.55
54872;BME280;43914;57.680;11.982;2023-04-02T10:07:40;102085.04;;;4.49;38.25
54872;BME280;43914;57.680;11.982;2023-04-02T10:15:29;102094.79;;;4.67;38.32
54872;BME280;43914;57.680;11.982;2023-04-02T10:18:19;102096.95;;;4.69;38.22
54872;BME280;43914;57.680;11.982;2023-04-02T10:20:49;102095.88;;;4.74;38.59
54872;BME280;43914;57.680;11.982;2023-04-02T10:23:17;102094.73;;;4.82;39.47
54872;BME280;43914;57.680;11.982;2023-04-02T10:28:54;102106.73;;;4.93;38.87
54872;BME280;43914;57.680;11.982;2023-04-02T10:31:31;102110.60;;;4.94;38.84
54872;BME280;43914;57.680;11.982;2023-04-02T10:34:00;102114.83;;;4.96;38.83
54872;BME280;43914;57.680;11.982;2023-04-02T10:36:50;102115.82;;;5.02;38.54
54872;BME280;43914;57.680;11.982;2023-04-02T10:39:35;102120.34;;;5.04;38.67
54872;BME280;43914;57.680;11.982;2023-04-02T10:44:58;102119.12;;;5.21;38.84
54872;BME280;43914;57.680;11.982;2023-04-02T10:50:22;102120.14;;;5.31;38.90
54872;BME280;43914;57.680;11.982;2023-04-02T10:55:31;102130.09;;;5.50;39.35
54872;BME280;43914;57.680;11.982;2023-04-02T10:58:03;102129.67;;;5.60;38.82
54872;BME280;43914;57.680;11.982;2023-04-02T11:00:34;102138.89;;;5.68;38.65
54872;BME280;43914;57.680;11.982;2023-04-02T11:03:06;102134.52;;;5.68;37.70
54872;BME280;43914;57.680;11.982;2023-04-02T11:05:57;102137.41;;;5.73;37.03
54872;BME280;43914;57.680;11.982;2023-04-02T11:08:44;102137.98;;;5.72;36.36
54872;BME280;43914;57.680;11.982;2023-04-02T11:16:31;102148.94;;;5.75;37.88
54872;BME280;43914;57.680;11.982;2023-04-02T11:27:29;102148.89;;;5.90;36.79
54872;BME280;43914;57.680;11.982;2023-04-02T11:32:47;102158.96;;;6.01;35.57
54872;BME280;43914;57.680;11.982;2023-04-02T11:37:56;102159.79;;;6.04;36.43
54872;BME280;43914;57.680;11.982;2023-04-02T11:45:58;102164.86;;;6.22;36.34
54872;BME280;43914;57.680;11.982;2023-04-02T11:48:35;102169.33;;;6.28;36.73
54872;BME280;43914;57.680;11.982;2023-04-02T11:53:45;102172.77;;;6.41;35.96
54872;BME280;43914;57.680;11.982;2023-04-02T11:56:33;102183.86;;;6.38;35.85
54872;BME280;43914;57.680;11.982;2023-04-02T12:02:04;102180.34;;;6.35;34.91
54872;BME280;43914;57.680;11.982;2023-04-02T12:04:43;102185.06;;;6.32;35.18
54872;BME280;43914;57.680;11.982;2023-04-02T12:09:50;102184.08;;;6.40;35.55
54872;BME280;43914;57.680;11.982;2023-04-02T12:12:35;102177.50;;;6.48;35.61
54872;BME280;43914;57.680;11.982;2023-04-02T12:15:04;102177.68;;;6.56;35.49
54872;BME280;43914;57.680;11.982;2023-04-02T12:17:35;102180.80;;;6.64;35.19
54872;BME280;43914;57.680;11.982;2023-04-02T12:20:03;102190.16;;;6.71;34.37
54872;BME280;43914;57.680;11.982;2023-04-02T12:22:53;102186.98;;;6.82;34.96
54872;BME280;43914;57.680;11.982;2023-04-02T12:25:30;102186.44;;;6.96;34.40
54872;BME280;43914;57.680;11.982;2023-04-02T12:30:35;102192.61;;;7.12;35.07
54872;BME280;43914;57.680;11.982;2023-04-02T12:33:33;102189.98;;;7.20;33.86
54872;BME280;43914;57.680;11.982;2023-04-02T12:36:03;102192.93;;;7.35;33.93
54872;BME280;43914;57.680;11.982;2023-04-02T12:38:41;102194.90;;;7.45;33.12
54872;BME280;43914;57.680;11.982;2023-04-02T12:43:58;102196.48;;;7.67;33.56
54872;BME280;43914;57.680;11.982;2023-04-02T12:46:24;102195.70;;;7.81;33.28
54872;BME280;43914;57.680;11.982;2023-04-02T12:49:01;102184.71;;;7.95;33.69
54872;BME280;43914;57.680;11.982;2023-04-02T12:51:30;102189.56;;;8.15;33.31
54872;BME280;43914;57.680;11.982;2023-04-02T12:53:56;102186.11;;;8.35;33.37
54872;BME280;43914;57.680;11.982;2023-04-02T12:56:23;102189.57;;;8.49;31.59
54872;BME280;43914;57.680;11.982;2023-04-02T12:58:59;102190.34;;;8.58;31.72
54872;BME280;43914;57.680;11.982;2023-04-02T13:01:27;102189.23;;;8.70;32.06
54872;BME280;43914;57.680;11.982;2023-04-02T13:06:26;102194.85;;;8.95;31.49
54872;BME280;43914;57.680;11.982;2023-04-02T13:08:52;102196.80;;;9.09;31.59
54872;BME280;43914;57.680;11.982;2023-04-02T13:11:19;102194.82;;;9.23;30.78
54872;BME280;43914;57.680;11.982;2023-04-02T13:13:47;102194.67;;;9.31;30.44
54872;BME280;43914;57.680;11.982;2023-04-02T13:18:39;102191.40;;;9.69;30.82
54872;BME280;43914;57.680;11.982;2023-04-02T13:21:23;102192.83;;;9.86;30.54
54872;BME280;43914;57.680;11.982;2023-04-02T13:23:52;102197.81;;;10.10;30.95
54872;BME280;43914;57.680;11.982;2023-04-02T13:26:26;102197.88;;;10.26;30.56
54872;BME280;43914;57.680;11.982;2023-04-02T13:31:34;102200.85;;;10.63;30.13
54872;BME280;43914;57.680;11.982;2023-04-02T13:34:00;102202.44;;;10.84;29.58
54872;BME280;43914;57.680;11.982;2023-04-02T13:36:26;102198.05;;;11.09;29.80
54872;BME280;43914;57.680;11.982;2023-04-02T13:38:54;102200.23;;;11.27;29.54
54872;BME280;43914;57.680;11.982;2023-04-02T13:41:25;102197.13;;;11.53;29.13
54872;BME280;43914;57.680;11.982;2023-04-02T13:43:57;102197.41;;;11.63;28.45
54872;BME280;43914;57.680;11.982;2023-04-02T13:46:26;102204.63;;;11.71;28.55
54872;BME280;43914;57.680;11.982;2023-04-02T13:48:53;102205.19;;;12.00;28.33
54872;BME280;43914;57.680;11.982;2023-04-02T13:51:22;102200.96;;;12.27;27.21
54872;BME280;43914;57.680;11.982;2023-04-02T13:53:53;102208.65;;;12.43;27.41
54872;BME280;43914;57.680;11.982;2023-04-02T13:56:20;102208.09;;;12.63;28.15
54872;BME280;43914;57.680;11.982;2023-04-02T13:58:47;102206.93;;;12.84;27.54
54872;BME280;43914;57.680;11.982;2023-04-02T14:01:13;102210.39;;;13.02;27.21
54872;BME280;43914;57.680;11.982;2023-04-02T14:03:40;102207.31;;;13.23;27.45
54872;BME280;43914;57.680;11.982;2023-04-02T14:22:52;102201.80;;;14.41;26.07
54872;BME280;43914;57.680;11.982;2023-04-02T14:36:51;102204.06;;;15.29;24.47
54872;BME280;43914;57.680;11.982;2023-04-02T14:39:42;102208.70;;;15.56;24.45
54872;BME280;43914;57.680;11.982;2023-04-02T14:42:18;102209.48;;;15.62;23.84
54872;BME280;43914;57.680;11.982;2023-04-02T14:45:12;102210.85;;;15.64;23.68
54872;BME280;43914;57.680;11.982;2023-04-02T14:47:45;102212.04;;;15.80;24.15
54872;BME280;43914;57.680;11.982;2023-04-02T14:50:26;102212.64;;;15.84;22.96
54872;BME280;43914;57.680;11.982;2023-04-02T14:52:57;102211.47;;;15.93;23.21
54872;BME280;43914;57.680;11.982;2023-04-02T14:55:43;102218.86;;;15.87;22.25
54872;BME280;43914;57.680;11.982;2023-04-02T14:58:38;102213.23;;;15.90;23.41
54872;BME280;43914;57.680;11.982;2023-04-02T15:01:13;102217.59;;;16.02;23.78
54872;BME280;43914;57.680;11.982;2023-04-02T15:04:03;102219.88;;;16.24;22.75
54872;BME280;43914;57.680;11.982;2023-04-02T15:06:49;102227.67;;;16.32;21.51
54872;BME280;43914;57.680;11.982;2023-04-02T15:09:27;102227.11;;;16.33;21.84
54872;BME280;43914;57.680;11.982;2023-04-02T15:12:02;102225.91;;;16.43;21.61
54872;BME280;43914;57.680;11.982;2023-04-02T15:14:41;102226.23;;;16.42;21.63
54872;BME280;43914;57.680;11.982;2023-04-02T15:17:12;102230.19;;;16.57;22.35
54872;BME280;43914;57.680;11.982;2023-04-02T15:19:38;102229.23;;;16.90;23.17
54872;BME280;43914;57.680;11.982;2023-04-02T15:22:13;102229.14;;;17.22;23.22
54872;BME280;43914;57.680;11.982;2023-04-02T15:27:43;102237.65;;;17.91;22.04
54872;BME280;43914;57.680;11.982;2023-04-02T15:30:24;102234.41;;;18.19;21.95
54872;BME280;43914;57.680;11.982;2023-04-02T15:32:54;102244.09;;;18.40;21.08
54872;BME280;43914;57.680;11.982;2023-04-02T15:38:14;102256.65;;;18.69;21.27
54872;BME280;43914;57.680;11.982;2023-04-02T15:41:00;102253.80;;;18.61;19.67
54872;BME280;43914;57.680;11.982;2023-04-02T15:43:38;102257.10;;;18.58;20.05
54872;BME280;43914;57.680;11.982;2023-04-02T15:46:21;102247.31;;;18.56;20.66
54872;BME280;43914;57.680;11.982;2023-04-02T15:54:58;102257.69;;;18.82;20.34
54872;BME280;43914;57.680;11.982;2023-04-02T16:03:04;102267.95;;;18.83;20.38
54872;BME280;43914;57.680;11.982;2023-04-02T16:05:59;102273.61;;;18.47;19.39
54872;BME280;43914;57.680;11.982;2023-04-02T16:11:23;102282.16;;;16.20;20.47
54872;BME280;43914;57.680;11.982;2023-04-02T16:13:51;102293.24;;;15.40;21.64
54872;BME280;43914;57.680;11.982;2023-04-02T16:16:34;102291.73;;;14.71;22.17
54872;BME280;43914;57.680;11.982;2023-04-02T16:19:31;102290.24;;;14.11;22.68
54872;BME280;43914;57.680;11.982;2023-04-02T16:22:03;102298.71;;;13.44;23.57
54872;BME280;43914;57.680;11.982;2023-04-02T16:24:31;102294.89;;;12.66;24.07
54872;BME280;43914;57.680;11.982;2023-04-02T16:32:41;102310.41;;;11.03;25.71
54872;BME280;43914;57.680;11.982;2023-04-02T16:42:54;102317.37;;;8.81;27.99
54872;BME280;43914;57.680;11.982;2023-04-02T16:45:49;102326.67;;;8.48;28.82
54872;BME280;43914;57.680;11.982;2023-04-02T16:51:19;102336.86;;;7.76;29.55